createdAt,value
2023-01-23T00:00:04.694Z,17.87
2023-01-23T00:02:59.023Z,16.90
2023-01-23T00:05:47.780Z,13.77
2023-01-23T00:08:36.017Z,14.90
2023-01-23T00:11:24.775Z,18.53
2023-01-23T00:14:12.121Z,16.00
2023-01-23T00:16:59.387Z,17.80
2023-01-23T00:19:47.049Z,13.03
2023-01-23T00:22:35.790Z,17.30
2023-01-23T00:25:22.917Z,14.37
2023-01-23T00:28:10.371Z,15.77
2023-01-23T00:31:04.685Z,17.33
2023-01-23T00:33:56.257Z,16.63
2023-01-23T00:36:44.933Z,16.83
2023-01-23T00:39:33.347Z,15.67
2023-01-23T00:42:20.315Z,14.90
2023-01-23T00:45:08.925Z,16.37
2023-01-23T00:47:56.179Z,16.17
2023-01-23T00:50:43.681Z,16.77
2023-01-23T00:53:31.236Z,16.93
2023-01-23T00:56:20.284Z,15.43
2023-01-23T00:59:08.075Z,21.67
2023-01-23T01:01:55.195Z,16.47
2023-01-23T01:04:42.592Z,16.73
2023-01-23T01:07:30.191Z,19.00
2023-01-23T01:10:18.023Z,17.87
2023-01-23T01:13:06.901Z,15.30
2023-01-23T01:15:54.402Z,16.13
2023-01-23T01:18:42.096Z,16.73
2023-01-23T01:21:30.212Z,18.27
2023-01-23T01:24:17.178Z,24.77
2023-01-23T01:27:04.792Z,14.83
2023-01-23T01:29:53.594Z,16.27
2023-01-23T01:32:42.420Z,18.23
2023-01-23T01:35:29.564Z,15.73
2023-01-23T01:38:17.193Z,17.93
2023-01-23T01:41:04.628Z,17.03
2023-01-23T01:43:53.299Z,15.70
2023-01-23T01:46:42.075Z,16.17
2023-01-23T01:49:33.402Z,22.03
2023-01-23T01:52:23.224Z,18.97
2023-01-23T01:55:11.771Z,14.70
2023-01-23T01:58:00.511Z,17.97
2023-01-23T02:00:47.890Z,19.57
2023-01-23T02:03:37.162Z,15.07
2023-01-23T02:06:24.792Z,15.57
2023-01-23T02:09:18.441Z,18.97
2023-01-23T02:12:07.095Z,20.67
2023-01-23T02:14:54.992Z,19.40
2023-01-23T02:17:43.409Z,17.30
2023-01-23T02:20:32.369Z,20.07
2023-01-23T02:23:32.043Z,17.67
2023-01-23T02:26:23.120Z,18.43
2023-01-23T02:29:11.093Z,19.83
2023-01-23T02:32:06.075Z,20.10
2023-01-23T02:34:56.563Z,23.00
2023-01-23T02:37:46.913Z,18.07
2023-01-23T02:40:36.449Z,24.03
2023-01-23T02:43:34.651Z,21.87
2023-01-23T02:46:25.959Z,19.47
2023-01-23T02:49:13.518Z,20.00
2023-01-23T02:52:01.067Z,17.30
2023-01-23T02:54:48.569Z,17.63
2023-01-23T02:57:36.074Z,21.03
2023-01-23T03:00:24.186Z,22.47
2023-01-23T03:03:11.346Z,20.47
2023-01-23T03:06:03.173Z,22.87
2023-01-23T03:08:51.127Z,21.17
2023-01-23T03:11:40.623Z,20.87
2023-01-23T03:14:28.165Z,21.13
2023-01-23T03:17:16.918Z,21.80
2023-01-23T03:20:05.945Z,25.23
2023-01-23T03:22:53.355Z,21.93
2023-01-23T03:25:44.714Z,23.20
2023-01-23T03:28:50.123Z,15.90
2023-01-23T03:31:38.383Z,19.87
2023-01-23T03:34:27.674Z,26.87
2023-01-23T03:37:17.500Z,25.40
2023-01-23T03:40:24.615Z,23.73
2023-01-23T03:43:11.988Z,22.67
2023-01-23T03:46:04.747Z,22.00
2023-01-23T03:48:53.134Z,25.03
2023-01-23T03:51:41.926Z,23.60
2023-01-23T03:54:30.094Z,24.17
2023-01-23T03:57:17.551Z,18.10
2023-01-23T04:00:22.066Z,21.73
2023-01-23T04:03:16.416Z,20.27
2023-01-23T04:06:03.939Z,22.43
2023-01-23T04:08:52.532Z,17.70
2023-01-23T04:11:39.759Z,20.10
2023-01-23T04:14:30.469Z,22.13
2023-01-23T04:17:17.835Z,19.23
2023-01-23T04:20:06.465Z,20.87
2023-01-23T04:22:53.842Z,19.60
2023-01-23T04:25:42.583Z,23.93
2023-01-23T04:28:34.430Z,23.50
2023-01-23T04:31:22.012Z,20.07
2023-01-23T04:34:10.016Z,22.17
2023-01-23T04:36:59.448Z,23.93
2023-01-23T04:39:46.656Z,18.77
2023-01-23T04:42:35.712Z,22.73
2023-01-23T04:45:27.641Z,19.50
2023-01-23T04:48:44.195Z,20.43
2023-01-23T04:51:32.505Z,24.83
2023-01-23T04:54:21.033Z,23.73
2023-01-23T04:57:08.528Z,19.23
2023-01-23T04:59:58.858Z,20.60
2023-01-23T05:02:47.946Z,27.80
2023-01-23T05:05:36.324Z,23.10
2023-01-23T05:08:23.627Z,22.97
2023-01-23T05:11:23.043Z,21.43
2023-01-23T05:14:10.720Z,21.10
2023-01-23T05:16:59.433Z,21.73
2023-01-23T05:19:52.239Z,22.13
2023-01-23T05:22:52.026Z,22.13
2023-01-23T05:25:40.934Z,21.80
2023-01-23T05:28:28.571Z,19.83
2023-01-23T05:31:16.715Z,21.00
2023-01-23T05:34:19.408Z,21.07
2023-01-23T05:37:07.057Z,21.30
2023-01-23T05:39:57.882Z,24.97
2023-01-23T05:42:48.753Z,18.60
2023-01-23T05:45:54.872Z,16.77
2023-01-23T05:48:51.517Z,24.43
2023-01-23T05:51:42.140Z,24.93
2023-01-23T05:54:29.274Z,23.30
2023-01-23T05:57:16.766Z,24.30
2023-01-23T06:00:16.012Z,22.23
2023-01-23T06:03:06.489Z,22.70
2023-01-23T06:06:12.687Z,18.40
2023-01-23T06:09:01.782Z,21.87
2023-01-23T06:11:50.141Z,21.13
2023-01-23T06:14:37.705Z,21.30
2023-01-23T06:17:26.264Z,22.40
2023-01-23T06:20:14.533Z,24.13
2023-01-23T06:23:05.132Z,22.70
2023-01-23T06:25:54.288Z,24.83
2023-01-23T06:28:41.886Z,23.07
2023-01-23T06:31:32.475Z,20.17
2023-01-23T06:34:21.240Z,23.97
2023-01-23T06:37:16.853Z,23.27
2023-01-23T06:40:06.839Z,21.60
2023-01-23T06:42:57.602Z,23.07
2023-01-23T06:45:45.678Z,22.17
2023-01-23T06:48:33.231Z,17.77
2023-01-23T06:51:20.679Z,24.67
2023-01-23T06:54:09.079Z,20.70
2023-01-23T06:56:56.603Z,21.50
2023-01-23T06:59:45.093Z,26.00
2023-01-23T07:02:34.831Z,22.93
2023-01-23T07:05:22.325Z,24.87
2023-01-23T07:08:10.151Z,19.53
2023-01-23T07:10:57.322Z,22.23
2023-01-23T07:13:44.755Z,19.90
2023-01-23T07:16:35.896Z,19.27
2023-01-23T07:19:23.176Z,19.20
2023-01-23T07:22:10.627Z,20.03
2023-01-23T07:24:57.789Z,20.93
2023-01-23T07:27:45.133Z,19.87
2023-01-23T07:30:32.651Z,18.67
2023-01-23T07:33:21.495Z,20.20
2023-01-23T07:36:09.753Z,19.87
2023-01-23T07:38:58.941Z,18.73
2023-01-23T07:41:46.634Z,21.10
2023-01-23T07:44:34.861Z,22.23
2023-01-23T07:47:22.083Z,21.27
2023-01-23T07:50:13.773Z,21.97
2023-01-23T07:53:01.023Z,21.20
2023-01-23T07:55:48.620Z,18.60
2023-01-23T07:58:36.344Z,19.80
2023-01-23T08:01:23.714Z,18.73
2023-01-23T08:04:11.212Z,21.30
2023-01-23T08:07:00.256Z,24.13
2023-01-23T08:09:47.563Z,19.23
2023-01-23T08:12:34.948Z,22.57
2023-01-23T08:15:22.600Z,17.80
2023-01-23T08:18:10.102Z,20.70
2023-01-23T08:25:26.423Z,22.83
2023-01-23T08:28:13.425Z,19.37
2023-01-23T08:31:02.051Z,20.80
2023-01-23T08:33:49.773Z,21.90
2023-01-23T08:36:37.302Z,20.10
2023-01-23T08:39:25.318Z,20.07
2023-01-23T08:42:14.021Z,19.17
2023-01-23T08:50:18.684Z,23.47
2023-01-23T08:53:06.090Z,21.07
2023-01-23T08:55:53.722Z,20.50
2023-01-23T08:58:42.544Z,20.67
2023-01-23T09:01:29.907Z,20.17
2023-01-23T09:04:18.715Z,21.07
2023-01-23T09:07:05.826Z,19.63
2023-01-23T09:09:54.883Z,20.10
2023-01-23T09:12:43.190Z,18.60
2023-01-23T09:15:32.201Z,19.43
2023-01-23T09:18:22.115Z,24.23
2023-01-23T09:21:11.338Z,21.70
2023-01-23T09:23:58.363Z,22.63
2023-01-23T09:26:45.964Z,22.33
2023-01-23T09:29:33.512Z,19.50
2023-01-23T09:32:21.965Z,21.07
2023-01-23T09:35:10.387Z,19.03
2023-01-23T09:38:06.726Z,21.47
2023-01-23T09:40:57.238Z,20.60
2023-01-23T09:43:50.788Z,21.67
2023-01-23T09:46:42.099Z,20.00
2023-01-23T09:49:41.086Z,19.00
2023-01-23T09:52:33.036Z,20.70
2023-01-23T09:55:25.930Z,19.40
2023-01-23T09:58:19.973Z,20.57
2023-01-23T10:01:11.315Z,17.43
2023-01-23T10:03:59.544Z,18.70
2023-01-23T10:07:14.758Z,19.03
2023-01-23T10:10:22.835Z,19.17
2023-01-23T10:13:16.617Z,21.43
2023-01-23T10:16:50.932Z,20.57
2023-01-23T10:20:03.802Z,22.47
2023-01-23T10:23:05.717Z,18.30
2023-01-23T10:25:54.017Z,18.60
2023-01-23T10:28:43.119Z,21.50
2023-01-23T10:31:38.538Z,22.60
2023-01-23T10:34:34.827Z,17.10
2023-01-23T10:37:32.475Z,21.70
2023-01-23T10:40:44.204Z,20.73
2023-01-23T10:43:31.767Z,22.07
2023-01-23T10:46:21.741Z,17.07
2023-01-23T10:49:09.000Z,19.77
2023-01-23T10:51:56.608Z,18.93
2023-01-23T10:54:47.868Z,19.73
2023-01-23T10:57:48.385Z,18.17
2023-01-23T11:00:38.320Z,17.83
2023-01-23T11:03:32.404Z,17.03
2023-01-23T11:06:25.794Z,17.27
2023-01-23T11:09:21.423Z,21.03
2023-01-23T11:12:17.438Z,17.20
2023-01-23T11:15:23.253Z,16.37
2023-01-23T11:18:36.731Z,17.27
2023-01-23T11:21:24.883Z,17.60
2023-01-23T11:24:27.582Z,20.53
2023-01-23T11:27:20.801Z,17.83
2023-01-23T11:30:39.558Z,19.07
2023-01-23T11:33:38.395Z,20.33
2023-01-23T11:36:38.447Z,21.97
2023-01-23T11:39:38.801Z,21.63
2023-01-23T11:42:28.749Z,16.93
2023-01-23T11:45:33.596Z,20.03
2023-01-23T11:48:27.065Z,19.90
2023-01-23T11:51:21.402Z,20.90
2023-01-23T11:54:28.848Z,17.90
2023-01-23T11:57:23.748Z,18.67
2023-01-23T12:00:25.614Z,15.97
2023-01-23T12:03:37.241Z,15.50
2023-01-23T12:06:57.285Z,18.77
2023-01-23T12:09:57.442Z,17.33
2023-01-23T12:12:59.507Z,18.00
2023-01-23T12:16:01.550Z,17.20
2023-01-23T12:19:02.098Z,16.97
2023-01-23T12:21:58.706Z,16.33
2023-01-23T12:24:56.973Z,15.47
2023-01-23T12:27:45.894Z,13.97
2023-01-23T12:30:56.373Z,15.43
2023-01-23T12:33:58.247Z,15.97
2023-01-23T12:37:16.653Z,12.00
2023-01-23T12:40:14.586Z,14.93
2023-01-23T12:43:06.786Z,12.80
2023-01-23T12:46:00.473Z,12.30
2023-01-23T12:48:55.082Z,15.13
2023-01-23T12:51:46.857Z,16.07
2023-01-23T12:54:38.794Z,13.73
2023-01-23T12:57:59.505Z,11.77
2023-01-23T13:01:11.180Z,11.63
2023-01-23T13:04:08.846Z,16.80
2023-01-23T13:07:13.292Z,12.63
2023-01-23T13:10:22.842Z,10.63
2023-01-23T13:13:10.367Z,12.97
2023-01-23T13:16:10.456Z,12.57
2023-01-23T13:19:17.012Z,12.17
2023-01-23T13:22:06.844Z,11.40
2023-01-23T13:25:12.950Z,12.47
2023-01-23T13:28:43.936Z,14.17
2023-01-23T13:31:41.937Z,12.13
2023-01-23T13:34:38.086Z,12.30
2023-01-23T13:37:51.959Z,12.03
2023-01-23T13:40:59.093Z,10.33
2023-01-23T13:43:55.309Z,12.77
2023-01-23T14:22:29.050Z,12.63
2023-01-23T14:25:18.631Z,11.87
2023-01-23T14:28:07.211Z,11.80
2023-01-23T14:31:01.727Z,9.53
2023-01-23T14:33:50.816Z,11.70
2023-01-23T14:36:43.388Z,10.57
2023-01-23T14:39:33.239Z,11.70
2023-01-23T14:42:27.084Z,9.87
2023-01-23T14:45:15.488Z,12.60
2023-01-23T14:48:08.059Z,12.30
2023-01-23T14:51:06.018Z,10.00
2023-01-23T14:53:58.132Z,10.83
2023-01-23T14:56:46.746Z,12.63
2023-01-23T14:59:37.105Z,9.27
2023-01-23T15:02:28.156Z,11.23
2023-01-23T15:05:23.481Z,11.00
2023-01-23T15:08:22.028Z,11.17
2023-01-23T15:11:12.020Z,10.83
2023-01-23T15:14:02.235Z,8.30
2023-01-23T15:16:51.246Z,8.13
2023-01-23T15:19:39.726Z,10.17
2023-01-23T15:22:30.276Z,9.63
2023-01-23T15:25:29.244Z,10.13
2023-01-23T15:28:32.591Z,10.90
2023-01-23T15:31:29.456Z,10.90
2023-01-23T15:34:23.895Z,10.47
2023-01-23T15:37:24.055Z,8.23
2023-01-23T15:40:19.675Z,9.97
2023-01-23T15:43:11.590Z,10.53
2023-01-23T15:45:59.504Z,8.97
2023-01-23T15:48:46.515Z,10.20
2023-01-23T15:51:33.958Z,11.83
2023-01-23T15:54:25.500Z,9.63
2023-01-23T15:57:14.919Z,9.40
2023-01-23T16:00:02.269Z,8.60
2023-01-23T16:03:00.558Z,9.17
2023-01-23T16:05:47.775Z,8.53
2023-01-23T16:08:35.273Z,8.37
2023-01-23T16:11:22.774Z,8.97
2023-01-23T16:14:16.772Z,7.80
2023-01-23T16:17:15.979Z,10.80
2023-01-23T16:20:04.260Z,9.47
2023-01-23T16:22:53.921Z,11.63
2023-01-23T16:25:44.921Z,9.03
2023-01-23T16:28:33.004Z,11.97
2023-01-23T16:31:22.987Z,9.90
2023-01-23T16:34:10.376Z,10.67
2023-01-23T16:37:00.708Z,11.63
2023-01-23T16:39:48.553Z,11.97
2023-01-23T16:42:35.860Z,9.13
2023-01-23T16:45:26.318Z,10.80
2023-01-23T16:48:25.426Z,12.33
2023-01-23T16:51:19.796Z,11.77
2023-01-23T16:54:18.357Z,9.47
2023-01-23T16:57:06.322Z,9.30
2023-01-23T16:59:56.268Z,11.57
2023-01-23T17:02:45.853Z,11.90
2023-01-23T17:05:34.613Z,11.00
2023-01-23T17:08:23.242Z,9.90
2023-01-23T17:11:19.375Z,11.40
2023-01-23T17:14:13.212Z,9.63
2023-01-23T17:17:06.077Z,10.50
2023-01-23T17:19:55.100Z,9.83
2023-01-23T17:22:44.759Z,9.43
2023-01-23T17:25:36.078Z,12.40
2023-01-23T17:28:26.372Z,10.10
2023-01-23T17:31:20.231Z,9.73
2023-01-23T17:34:11.389Z,9.93
2023-01-23T17:36:58.656Z,10.50
2023-01-23T17:39:47.234Z,12.93
2023-01-23T17:42:34.356Z,11.30
2023-01-23T17:45:24.410Z,10.07
2023-01-23T17:48:15.162Z,10.60
2023-01-23T17:51:02.694Z,13.63
2023-01-23T17:53:50.933Z,12.23
2023-01-23T17:56:39.354Z,8.90
2023-01-23T17:59:26.677Z,11.80
2023-01-23T18:02:24.955Z,11.90
2023-01-23T18:05:13.743Z,11.20
2023-01-23T18:08:01.020Z,10.53
2023-01-23T18:10:52.421Z,13.23
2023-01-23T18:13:51.550Z,12.13
2023-01-23T18:16:45.062Z,11.60
2023-01-23T18:19:33.129Z,10.43
2023-01-23T18:22:21.034Z,12.03
2023-01-23T18:25:14.001Z,13.17
2023-01-23T18:28:06.117Z,12.90
2023-01-23T18:31:03.543Z,10.83
2023-01-23T18:34:05.884Z,10.13
2023-01-23T18:37:03.668Z,11.03
2023-01-23T18:40:01.696Z,10.30
2023-01-23T18:42:56.413Z,11.10
2023-01-23T18:45:44.338Z,13.10
2023-01-23T18:48:35.846Z,10.73
2023-01-23T18:51:37.798Z,11.50
2023-01-23T18:54:32.054Z,11.53
2023-01-23T18:57:42.373Z,11.03
2023-01-23T19:00:36.999Z,11.10
2023-01-23T19:03:33.789Z,13.93
2023-01-23T19:06:24.774Z,11.30
2023-01-23T19:09:19.533Z,11.33
2023-01-23T19:12:24.916Z,11.13
2023-01-23T19:15:25.037Z,13.43
2023-01-23T19:18:39.093Z,10.63
2023-01-23T19:21:29.391Z,12.40
2023-01-23T19:24:19.994Z,10.87
2023-01-23T19:27:18.492Z,10.97
2023-01-23T19:30:07.028Z,12.47
2023-01-23T19:32:54.418Z,11.40
2023-01-23T19:35:41.724Z,9.00
2023-01-23T19:38:30.419Z,11.77
2023-01-23T19:41:20.640Z,12.17
2023-01-23T19:44:09.985Z,10.73
2023-01-23T19:46:57.860Z,10.57
2023-01-23T19:49:48.350Z,13.20
2023-01-23T19:52:35.659Z,11.10
2023-01-23T19:55:27.217Z,11.77
2023-01-23T19:58:14.319Z,13.43
2023-01-23T20:01:01.918Z,10.70
2023-01-23T20:03:49.533Z,11.20
2023-01-23T20:06:38.836Z,10.37
2023-01-23T20:09:26.475Z,10.83
2023-01-23T20:12:15.440Z,9.87
2023-01-23T20:15:02.635Z,8.47
2023-01-23T20:17:50.408Z,10.73
2023-01-23T20:20:37.960Z,18.87
2023-01-23T20:23:25.245Z,11.17
2023-01-23T20:26:12.962Z,8.87
2023-01-23T20:29:01.615Z,9.53
2023-01-23T20:31:48.916Z,10.47
2023-01-23T20:34:36.407Z,10.27
2023-01-23T20:37:23.440Z,9.37
2023-01-23T20:40:12.384Z,9.33
2023-01-23T20:42:59.772Z,10.63
2023-01-23T20:45:50.622Z,10.57
2023-01-23T20:48:39.415Z,8.93
2023-01-23T20:51:27.399Z,10.80
2023-01-23T20:54:14.600Z,10.27
2023-01-23T20:57:02.086Z,8.77
2023-01-23T20:59:48.639Z,10.33
2023-01-23T21:02:37.565Z,12.13
2023-01-23T21:05:24.632Z,9.50
2023-01-23T21:08:11.999Z,9.47
2023-01-23T21:10:59.403Z,8.43
2023-01-23T21:13:52.012Z,9.70
2023-01-23T21:16:39.138Z,12.40
2023-01-23T21:19:28.170Z,9.47
2023-01-23T21:22:15.629Z,8.23
2023-01-23T21:25:03.041Z,9.47
2023-01-23T21:27:50.377Z,7.50
2023-01-23T21:30:39.619Z,8.70
2023-01-23T21:33:26.989Z,11.93
2023-01-23T21:36:17.639Z,11.97
2023-01-23T21:39:23.237Z,8.87
2023-01-23T21:42:10.642Z,11.20
2023-01-23T21:44:58.228Z,14.37
2023-01-23T21:47:45.692Z,9.37
2023-01-23T21:50:32.992Z,9.50
2023-01-23T21:53:21.785Z,9.40
2023-01-23T21:56:10.098Z,10.40
2023-01-23T21:58:57.465Z,8.53
2023-01-23T22:01:45.169Z,15.93
2023-01-23T22:04:32.379Z,11.07
2023-01-23T22:07:19.707Z,12.37
2023-01-23T22:10:10.029Z,10.37
2023-01-23T22:12:57.482Z,13.07
2023-01-23T22:15:44.743Z,10.53
2023-01-23T22:18:33.531Z,9.10
2023-01-23T22:21:21.107Z,8.03
2023-01-23T22:24:08.992Z,11.17
2023-01-23T22:26:57.518Z,10.87
2023-01-23T22:29:45.017Z,10.53
2023-01-23T22:32:33.897Z,10.57
2023-01-23T22:35:21.552Z,10.53
2023-01-23T22:38:10.488Z,11.87
2023-01-23T22:40:58.960Z,15.13
2023-01-23T22:43:47.522Z,10.27
2023-01-23T22:46:35.073Z,10.17
2023-01-23T22:49:22.652Z,11.43
2023-01-23T22:52:09.888Z,11.40
2023-01-23T22:54:57.279Z,10.07
2023-01-23T22:57:44.740Z,16.60
2023-01-23T23:00:33.664Z,15.77
2023-01-23T23:03:21.557Z,14.97
2023-01-23T23:06:11.653Z,9.83
2023-01-23T23:08:59.039Z,11.13
2023-01-23T23:11:48.963Z,11.33
2023-01-23T23:14:37.574Z,11.90
2023-01-23T23:17:26.946Z,14.87
2023-01-23T23:20:14.802Z,13.43
2023-01-23T23:23:02.264Z,14.53
2023-01-23T23:25:54.194Z,12.63
2023-01-23T23:28:42.373Z,11.23
2023-01-23T23:31:30.009Z,14.17
2023-01-23T23:34:18.825Z,12.17
2023-01-23T23:37:06.110Z,12.90
2023-01-23T23:39:53.392Z,11.77
2023-01-23T23:42:41.427Z,10.67
2023-01-23T23:45:29.066Z,11.10
2023-01-23T23:48:16.374Z,10.97
2023-01-23T23:51:06.819Z,17.27
2023-01-23T23:53:55.521Z,11.80
2023-01-23T23:56:42.591Z,15.50
2023-01-23T23:59:30.127Z,14.30
